Terminal Aerodrome Forecast
Issued by NWS Brownsville, TX

Home | Current Version | Previous Version | Text Only | Print | Product List | Glossary On
Versions: 1 2 3 4 5 6 7 8 9 10 11 12 13 14
303
FTUS44 KBRO 181125
TAFHRL
TAF
KHRL 181125Z 1812/1912 17003KT 2SM BR VCSH BKN014 BKN070
     FM181500 21005KT 4SM BR VCSH SCT007 BKN015
     FM181800 25010KT P6SM VCSH SCT015 BKN030
     FM182100 33005KT P6SM SCT015 BKN030
     FM190600 33005KT 4SM BR VCSH BKN015 PROB30 1906/1912 2SM SHRA
      BR OVC015=

USA.gov is the U.S. government's official web portal to all federal, state and local government web resources and services.